sensor_id;sensor_type;location;lat;lon;timestamp;P1;durP1;ratioP1;P2;durP2;ratioP2
17197;SDS011;8715;51.010;6.812;2023-05-07T00:02:04;974.30;;;887.75;;
17197;SDS011;8715;51.010;6.812;2023-05-07T00:04:31;978.92;;;891.80;;
17197;SDS011;8715;51.010;6.812;2023-05-07T00:07:01;976.08;;;888.97;;
17197;SDS011;8715;51.010;6.812;2023-05-07T00:09:27;976.05;;;889.10;;
17197;SDS011;8715;51.010;6.812;2023-05-07T00:11:55;974.50;;;888.03;;
17197;SDS011;8715;51.010;6.812;2023-05-07T00:14:22;972.13;;;884.63;;
17197;SDS011;8715;51.010;6.812;2023-05-07T00:16:48;975.58;;;889.00;;
17197;SDS011;8715;51.010;6.812;2023-05-07T00:19:14;979.70;;;892.58;;
17197;SDS011;8715;51.010;6.812;2023-05-07T00:21:41;976.08;;;889.35;;
17197;SDS011;8715;51.010;6.812;2023-05-07T00:24:07;975.20;;;889.45;;
17197;SDS011;8715;51.010;6.812;2023-05-07T00:26:33;973.53;;;887.45;;
17197;SDS011;8715;51.010;6.812;2023-05-07T00:29:01;974.85;;;889.15;;
17197;SDS011;8715;51.010;6.812;2023-05-07T00:31:27;974.08;;;888.60;;
17197;SDS011;8715;51.010;6.812;2023-05-07T00:33:54;973.35;;;887.72;;
17197;SDS011;8715;51.010;6.812;2023-05-07T00:36:20;968.28;;;883.53;;
17197;SDS011;8715;51.010;6.812;2023-05-07T00:38:46;974.50;;;888.97;;
17197;SDS011;8715;51.010;6.812;2023-05-07T00:41:13;972.60;;;887.08;;
17197;SDS011;8715;51.010;6.812;2023-05-07T00:43:39;976.45;;;890.72;;
17197;SDS011;8715;51.010;6.812;2023-05-07T00:46:07;967.40;;;881.38;;
17197;SDS011;8715;51.010;6.812;2023-05-07T00:48:33;971.58;;;886.97;;
17197;SDS011;8715;51.010;6.812;2023-05-07T00:50:59;971.83;;;886.78;;
17197;SDS011;8715;51.010;6.812;2023-05-07T00:53:26;975.03;;;889.33;;
17197;SDS011;8715;51.010;6.812;2023-05-07T00:55:52;970.65;;;885.88;;
17197;SDS011;8715;51.010;6.812;2023-05-07T00:58:19;966.33;;;881.63;;
17197;SDS011;8715;51.010;6.812;2023-05-07T01:00:45;969.72;;;883.83;;
17197;SDS011;8715;51.010;6.812;2023-05-07T01:03:13;972.05;;;887.55;;
17197;SDS011;8715;51.010;6.812;2023-05-07T01:05:40;971.28;;;886.22;;
17197;SDS011;8715;51.010;6.812;2023-05-07T01:08:07;974.72;;;889.85;;
17197;SDS011;8715;51.010;6.812;2023-05-07T01:10:33;967.95;;;883.63;;
17197;SDS011;8715;51.010;6.812;2023-05-07T01:12:59;968.22;;;883.00;;
17197;SDS011;8715;51.010;6.812;2023-05-07T01:15:26;970.80;;;885.67;;
17197;SDS011;8715;51.010;6.812;2023-05-07T01:17:53;966.95;;;882.10;;
17197;SDS011;8715;51.010;6.812;2023-05-07T01:20:21;973.47;;;888.10;;
17197;SDS011;8715;51.010;6.812;2023-05-07T01:22:50;969.88;;;885.40;;
17197;SDS011;8715;51.010;6.812;2023-05-07T01:25:16;972.13;;;887.60;;
17197;SDS011;8715;51.010;6.812;2023-05-07T01:27:43;972.08;;;886.50;;
17197;SDS011;8715;51.010;6.812;2023-05-07T01:30:10;974.33;;;888.78;;
17197;SDS011;8715;51.010;6.812;2023-05-07T01:32:37;976.03;;;890.58;;
17197;SDS011;8715;51.010;6.812;2023-05-07T01:35:05;969.45;;;884.10;;
17197;SDS011;8715;51.010;6.812;2023-05-07T01:37:33;971.58;;;886.35;;
17197;SDS011;8715;51.010;6.812;2023-05-07T01:40:01;972.65;;;887.63;;
17197;SDS011;8715;51.010;6.812;2023-05-07T01:42:28;968.83;;;884.25;;
17197;SDS011;8715;51.010;6.812;2023-05-07T01:44:55;970.30;;;885.55;;
17197;SDS011;8715;51.010;6.812;2023-05-07T01:47:21;971.67;;;886.85;;
17197;SDS011;8715;51.010;6.812;2023-05-07T01:49:47;975.47;;;890.17;;
17197;SDS011;8715;51.010;6.812;2023-05-07T01:52:14;971.60;;;886.28;;
17197;SDS011;8715;51.010;6.812;2023-05-07T01:54:40;971.30;;;886.45;;
17197;SDS011;8715;51.010;6.812;2023-05-07T01:57:09;968.38;;;884.22;;
17197;SDS011;8715;51.010;6.812;2023-05-07T01:59:35;970.40;;;885.33;;
17197;SDS011;8715;51.010;6.812;2023-05-07T02:02:01;967.15;;;882.20;;
17197;SDS011;8715;51.010;6.812;2023-05-07T02:04:28;969.65;;;884.95;;
17197;SDS011;8715;51.010;6.812;2023-05-07T02:06:54;970.88;;;885.97;;
17197;SDS011;8715;51.010;6.812;2023-05-07T02:09:20;971.17;;;885.97;;
17197;SDS011;8715;51.010;6.812;2023-05-07T02:11:48;969.35;;;884.28;;
17197;SDS011;8715;51.010;6.812;2023-05-07T02:14:15;963.55;;;878.42;;
17197;SDS011;8715;51.010;6.812;2023-05-07T02:16:42;975.22;;;889.78;;
17197;SDS011;8715;51.010;6.812;2023-05-07T02:19:08;969.05;;;884.63;;
17197;SDS011;8715;51.010;6.812;2023-05-07T02:21:34;974.33;;;889.30;;
17197;SDS011;8715;51.010;6.812;2023-05-07T02:24:01;969.22;;;884.85;;
17197;SDS011;8715;51.010;6.812;2023-05-07T02:26:27;972.35;;;887.53;;
17197;SDS011;8715;51.010;6.812;2023-05-07T02:28:54;971.67;;;887.28;;
17197;SDS011;8715;51.010;6.812;2023-05-07T02:31:21;968.03;;;883.97;;
17197;SDS011;8715;51.010;6.812;2023-05-07T02:33:48;967.50;;;883.60;;
17197;SDS011;8715;51.010;6.812;2023-05-07T02:36:14;971.30;;;886.97;;
17197;SDS011;8715;51.010;6.812;2023-05-07T02:38:41;971.40;;;886.95;;
17197;SDS011;8715;51.010;6.812;2023-05-07T02:41:07;966.92;;;884.22;;
17197;SDS011;8715;51.010;6.812;2023-05-07T02:43:33;966.38;;;883.00;;
17197;SDS011;8715;51.010;6.812;2023-05-07T02:46:00;964.85;;;882.05;;
17197;SDS011;8715;51.010;6.812;2023-05-07T02:48:29;962.03;;;879.90;;
17197;SDS011;8715;51.010;6.812;2023-05-07T02:50:55;963.63;;;881.40;;
17197;SDS011;8715;51.010;6.812;2023-05-07T02:53:21;957.50;;;876.10;;
17197;SDS011;8715;51.010;6.812;2023-05-07T02:55:50;965.40;;;882.92;;
17197;SDS011;8715;51.010;6.812;2023-05-07T02:58:16;959.33;;;878.08;;
17197;SDS011;8715;51.010;6.812;2023-05-07T03:00:43;961.00;;;879.30;;
17197;SDS011;8715;51.010;6.812;2023-05-07T03:03:09;963.92;;;881.70;;
17197;SDS011;8715;51.010;6.812;2023-05-07T03:05:37;964.03;;;882.28;;
17197;SDS011;8715;51.010;6.812;2023-05-07T03:08:03;960.65;;;879.42;;
17197;SDS011;8715;51.010;6.812;2023-05-07T03:10:30;956.58;;;875.45;;
17197;SDS011;8715;51.010;6.812;2023-05-07T03:12:56;964.58;;;882.10;;
17197;SDS011;8715;51.010;6.812;2023-05-07T03:15:23;962.22;;;879.92;;
17197;SDS011;8715;51.010;6.812;2023-05-07T03:17:49;959.22;;;877.95;;
17197;SDS011;8715;51.010;6.812;2023-05-07T03:20:15;963.08;;;881.22;;
17197;SDS011;8715;51.010;6.812;2023-05-07T03:22:43;968.35;;;886.03;;
17197;SDS011;8715;51.010;6.812;2023-05-07T03:25:10;964.05;;;882.10;;
17197;SDS011;8715;51.010;6.812;2023-05-07T03:27:36;964.05;;;881.55;;
17197;SDS011;8715;51.010;6.812;2023-05-07T03:30:03;964.38;;;882.17;;
17197;SDS011;8715;51.010;6.812;2023-05-07T03:32:29;962.53;;;881.13;;
17197;SDS011;8715;51.010;6.812;2023-05-07T03:34:56;962.08;;;880.00;;
17197;SDS011;8715;51.010;6.812;2023-05-07T03:37:22;963.70;;;881.72;;
17197;SDS011;8715;51.010;6.812;2023-05-07T03:39:50;964.88;;;883.08;;
17197;SDS011;8715;51.010;6.812;2023-05-07T03:42:16;961.72;;;879.88;;
17197;SDS011;8715;51.010;6.812;2023-05-07T03:44:43;964.95;;;883.05;;
17197;SDS011;8715;51.010;6.812;2023-05-07T03:47:09;962.22;;;879.95;;
17197;SDS011;8715;51.010;6.812;2023-05-07T03:49:36;962.30;;;880.17;;
17197;SDS011;8715;51.010;6.812;2023-05-07T03:52:02;963.03;;;881.33;;
17197;SDS011;8715;51.010;6.812;2023-05-07T03:54:29;965.58;;;883.08;;
17197;SDS011;8715;51.010;6.812;2023-05-07T03:56:57;962.03;;;880.35;;
17197;SDS011;8715;51.010;6.812;2023-05-07T03:59:24;963.17;;;881.00;;
17197;SDS011;8715;51.010;6.812;2023-05-07T04:01:50;959.30;;;877.67;;
17197;SDS011;8715;51.010;6.812;2023-05-07T04:04:17;963.17;;;880.70;;
17197;SDS011;8715;51.010;6.812;2023-05-07T04:06:43;962.25;;;880.40;;
17197;SDS011;8715;51.010;6.812;2023-05-07T04:09:09;961.75;;;880.10;;
17197;SDS011;8715;51.010;6.812;2023-05-07T04:11:36;964.30;;;882.38;;
17197;SDS011;8715;51.010;6.812;2023-05-07T04:14:04;958.70;;;877.20;;
17197;SDS011;8715;51.010;6.812;2023-05-07T04:16:30;963.42;;;881.40;;
17197;SDS011;8715;51.010;6.812;2023-05-07T04:18:56;961.88;;;879.88;;
17197;SDS011;8715;51.010;6.812;2023-05-07T04:21:23;964.60;;;882.30;;
17197;SDS011;8715;51.010;6.812;2023-05-07T04:23:50;968.63;;;885.65;;
17197;SDS011;8715;51.010;6.812;2023-05-07T04:26:17;968.83;;;885.83;;
17197;SDS011;8715;51.010;6.812;2023-05-07T04:28:43;966.08;;;883.42;;
17197;SDS011;8715;51.010;6.812;2023-05-07T04:31:11;964.78;;;882.58;;
17197;SDS011;8715;51.010;6.812;2023-05-07T04:33:37;962.17;;;880.55;;
17197;SDS011;8715;51.010;6.812;2023-05-07T04:36:04;965.28;;;882.63;;
17197;SDS011;8715;51.010;6.812;2023-05-07T04:38:30;961.95;;;880.05;;
17197;SDS011;8715;51.010;6.812;2023-05-07T04:40:57;966.97;;;884.33;;
17197;SDS011;8715;51.010;6.812;2023-05-07T04:43:23;960.33;;;878.75;;
17197;SDS011;8715;51.010;6.812;2023-05-07T04:45:50;959.33;;;875.38;;
17197;SDS011;8715;51.010;6.812;2023-05-07T04:48:18;971.35;;;887.10;;
17197;SDS011;8715;51.010;6.812;2023-05-07T04:50:46;967.72;;;883.80;;
17197;SDS011;8715;51.010;6.812;2023-05-07T04:53:13;971.70;;;887.17;;
17197;SDS011;8715;51.010;6.812;2023-05-07T04:55:39;971.50;;;886.45;;
17197;SDS011;8715;51.010;6.812;2023-05-07T04:58:06;968.75;;;883.83;;
17197;SDS011;8715;51.010;6.812;2023-05-07T05:00:32;972.45;;;887.33;;
17197;SDS011;8715;51.010;6.812;2023-05-07T05:02:58;973.65;;;887.75;;
17197;SDS011;8715;51.010;6.812;2023-05-07T05:05:26;976.35;;;889.88;;
17197;SDS011;8715;51.010;6.812;2023-05-07T05:07:52;975.42;;;888.03;;
17197;SDS011;8715;51.010;6.812;2023-05-07T05:10:19;977.97;;;889.47;;
17197;SDS011;8715;51.010;6.812;2023-05-07T05:12:46;979.90;;;891.00;;
17197;SDS011;8715;51.010;6.812;2023-05-07T05:15:12;982.65;;;893.08;;
17197;SDS011;8715;51.010;6.812;2023-05-07T05:17:38;982.03;;;892.10;;
17197;SDS011;8715;51.010;6.812;2023-05-07T05:20:05;974.92;;;884.47;;
17197;SDS011;8715;51.010;6.812;2023-05-07T05:22:33;984.92;;;894.70;;
17197;SDS011;8715;51.010;6.812;2023-05-07T05:24:59;984.63;;;894.38;;
17197;SDS011;8715;51.010;6.812;2023-05-07T05:27:26;983.58;;;893.60;;
17197;SDS011;8715;51.010;6.812;2023-05-07T05:29:52;985.17;;;894.80;;
17197;SDS011;8715;51.010;6.812;2023-05-07T05:32:19;983.28;;;892.90;;
17197;SDS011;8715;51.010;6.812;2023-05-07T05:34:45;982.58;;;892.58;;
17197;SDS011;8715;51.010;6.812;2023-05-07T05:37:12;976.33;;;885.63;;
17197;SDS011;8715;51.010;6.812;2023-05-07T05:39:39;985.22;;;894.75;;
17197;SDS011;8715;51.010;6.812;2023-05-07T05:42:06;986.08;;;895.47;;
17197;SDS011;8715;51.010;6.812;2023-05-07T05:44:32;980.38;;;889.03;;
17197;SDS011;8715;51.010;6.812;2023-05-07T05:46:59;984.78;;;894.10;;
17197;SDS011;8715;51.010;6.812;2023-05-07T05:49:25;984.90;;;894.35;;
17197;SDS011;8715;51.010;6.812;2023-05-07T05:51:52;983.78;;;893.30;;
17197;SDS011;8715;51.010;6.812;2023-05-07T05:54:18;980.30;;;889.10;;
17197;SDS011;8715;51.010;6.812;2023-05-07T05:56:46;986.42;;;895.78;;
17197;SDS011;8715;51.010;6.812;2023-05-07T05:59:12;984.42;;;893.75;;
17197;SDS011;8715;51.010;6.812;2023-05-07T06:01:39;988.00;;;896.63;;
17197;SDS011;8715;51.010;6.812;2023-05-07T06:04:05;982.40;;;892.20;;
17197;SDS011;8715;51.010;6.812;2023-05-07T06:06:31;989.33;;;897.53;;
17197;SDS011;8715;51.010;6.812;2023-05-07T06:08:58;987.50;;;895.78;;
17197;SDS011;8715;51.010;6.812;2023-05-07T06:11:24;991.08;;;899.00;;
17197;SDS011;8715;51.010;6.812;2023-05-07T06:13:52;989.90;;;897.85;;
17197;SDS011;8715;51.010;6.812;2023-05-07T06:16:19;990.78;;;898.13;;
17197;SDS011;8715;51.010;6.812;2023-05-07T06:18:45;990.90;;;897.63;;
17197;SDS011;8715;51.010;6.812;2023-05-07T06:21:13;986.40;;;892.72;;
17197;SDS011;8715;51.010;6.812;2023-05-07T06:23:39;996.05;;;902.08;;
17197;SDS011;8715;51.010;6.812;2023-05-07T06:26:06;993.08;;;899.25;;
17197;SDS011;8715;51.010;6.812;2023-05-07T06:28:32;995.15;;;900.35;;
17197;SDS011;8715;51.010;6.812;2023-05-07T06:31:11;996.03;;;901.28;;
17197;SDS011;8715;51.010;6.812;2023-05-07T06:33:38;998.08;;;902.50;;
17197;SDS011;8715;51.010;6.812;2023-05-07T06:36:05;998.35;;;902.70;;
17197;SDS011;8715;51.010;6.812;2023-05-07T06:38:32;999.35;;;903.40;;
17197;SDS011;8715;51.010;6.812;2023-05-07T06:40:58;1000.78;;;904.47;;
17197;SDS011;8715;51.010;6.812;2023-05-07T06:43:24;1000.72;;;904.20;;
17197;SDS011;8715;51.010;6.812;2023-05-07T06:45:51;999.45;;;902.60;;
17197;SDS011;8715;51.010;6.812;2023-05-07T06:48:18;998.13;;;899.42;;
17197;SDS011;8715;51.010;6.812;2023-05-07T06:50:45;1004.78;;;906.28;;
17197;SDS011;8715;51.010;6.812;2023-05-07T06:53:11;1005.92;;;907.25;;
17197;SDS011;8715;51.010;6.812;2023-05-07T06:55:37;1008.00;;;908.63;;
17197;SDS011;8715;51.010;6.812;2023-05-07T06:58:04;1003.65;;;905.28;;
17197;SDS011;8715;51.010;6.812;2023-05-07T07:00:31;1006.00;;;906.92;;
17197;SDS011;8715;51.010;6.812;2023-05-07T07:02:57;998.35;;;898.65;;
17197;SDS011;8715;51.010;6.812;2023-05-07T07:05:26;1002.78;;;904.83;;
17197;SDS011;8715;51.010;6.812;2023-05-07T07:07:52;1005.08;;;906.67;;
17197;SDS011;8715;51.010;6.812;2023-05-07T07:10:18;1004.55;;;905.90;;
17197;SDS011;8715;51.010;6.812;2023-05-07T07:12:45;1005.55;;;906.38;;
17197;SDS011;8715;51.010;6.812;2023-05-07T07:15:11;1005.00;;;905.38;;
17197;SDS011;8715;51.010;6.812;2023-05-07T07:17:38;1010.25;;;909.22;;
17197;SDS011;8715;51.010;6.812;2023-05-07T07:20:05;1013.20;;;911.33;;
17197;SDS011;8715;51.010;6.812;2023-05-07T07:22:32;1015.60;;;912.92;;
17197;SDS011;8715;51.010;6.812;2023-05-07T07:24:59;1014.58;;;911.40;;
17197;SDS011;8715;51.010;6.812;2023-05-07T07:27:25;1014.67;;;911.58;;
17197;SDS011;8715;51.010;6.812;2023-05-07T07:29:52;1020.30;;;916.03;;
17197;SDS011;8715;51.010;6.812;2023-05-07T07:32:18;1018.60;;;913.92;;
17197;SDS011;8715;51.010;6.812;2023-05-07T07:34:44;1014.30;;;909.03;;
17197;SDS011;8715;51.010;6.812;2023-05-07T07:37:11;1021.30;;;915.72;;
17197;SDS011;8715;51.010;6.812;2023-05-07T07:39:39;1021.30;;;915.67;;
17197;SDS011;8715;51.010;6.812;2023-05-07T07:42:06;1021.50;;;915.28;;
17197;SDS011;8715;51.010;6.812;2023-05-07T07:44:32;1022.83;;;916.78;;
17197;SDS011;8715;51.010;6.812;2023-05-07T07:46:58;1019.90;;;913.85;;
17197;SDS011;8715;51.010;6.812;2023-05-07T07:49:25;1023.13;;;916.65;;
17197;SDS011;8715;51.010;6.812;2023-05-07T07:51:51;1022.42;;;916.90;;
17197;SDS011;8715;51.010;6.812;2023-05-07T07:54:18;1017.38;;;910.53;;
17197;SDS011;8715;51.010;6.812;2023-05-07T07:56:45;1023.72;;;917.10;;
17197;SDS011;8715;51.010;6.812;2023-05-07T07:59:12;1025.70;;;918.33;;
17197;SDS011;8715;51.010;6.812;2023-05-07T08:01:42;1028.32;;;920.40;;
17197;SDS011;8715;51.010;6.812;2023-05-07T08:04:09;1023.30;;;916.05;;
17197;SDS011;8715;51.010;6.812;2023-05-07T08:06:35;1021.92;;;913.45;;
17197;SDS011;8715;51.010;6.812;2023-05-07T08:09:01;1028.28;;;919.90;;
17197;SDS011;8715;51.010;6.812;2023-05-07T08:11:28;1026.57;;;918.20;;
17197;SDS011;8715;51.010;6.812;2023-05-07T08:13:56;1025.60;;;917.95;;
17197;SDS011;8715;51.010;6.812;2023-05-07T08:16:22;1023.08;;;916.33;;
17197;SDS011;8715;51.010;6.812;2023-05-07T08:18:49;1022.00;;;915.72;;
17197;SDS011;8715;51.010;6.812;2023-05-07T08:21:15;1021.35;;;913.50;;
17197;SDS011;8715;51.010;6.812;2023-05-07T08:23:41;1024.60;;;917.28;;
17197;SDS011;8715;51.010;6.812;2023-05-07T08:26:08;1025.55;;;917.60;;
17197;SDS011;8715;51.010;6.812;2023-05-07T08:28:35;1027.65;;;919.25;;
17197;SDS011;8715;51.010;6.812;2023-05-07T08:31:03;1028.57;;;919.72;;
17197;SDS011;8715;51.010;6.812;2023-05-07T08:33:29;1023.65;;;914.35;;
17197;SDS011;8715;51.010;6.812;2023-05-07T08:35:56;1030.60;;;921.53;;
17197;SDS011;8715;51.010;6.812;2023-05-07T08:38:22;1025.50;;;917.53;;
17197;SDS011;8715;51.010;6.812;2023-05-07T08:40:48;1027.47;;;918.92;;
17197;SDS011;8715;51.010;6.812;2023-05-07T08:43:15;1024.32;;;916.50;;
17197;SDS011;8715;51.010;6.812;2023-05-07T08:45:42;1025.30;;;917.60;;
17197;SDS011;8715;51.010;6.812;2023-05-07T08:48:15;1025.60;;;918.67;;
17197;SDS011;8715;51.010;6.812;2023-05-07T08:50:42;1025.85;;;918.58;;
17197;SDS011;8715;51.010;6.812;2023-05-07T08:53:08;1020.13;;;914.08;;
17197;SDS011;8715;51.010;6.812;2023-05-07T08:55:34;1024.38;;;917.95;;
17197;SDS011;8715;51.010;6.812;2023-05-07T08:58:01;1024.10;;;918.05;;
17197;SDS011;8715;51.010;6.812;2023-05-07T09:00:27;1023.63;;;917.28;;
17197;SDS011;8715;51.010;6.812;2023-05-07T09:02:54;1027.28;;;919.90;;
17197;SDS011;8715;51.010;6.812;2023-05-07T09:05:21;1028.47;;;920.28;;
17197;SDS011;8715;51.010;6.812;2023-05-07T09:07:48;1028.30;;;920.00;;
17197;SDS011;8715;51.010;6.812;2023-05-07T09:10:15;1029.05;;;920.05;;
17197;SDS011;8715;51.010;6.812;2023-05-07T09:12:41;1029.28;;;920.03;;
17197;SDS011;8715;51.010;6.812;2023-05-07T09:15:08;1031.82;;;921.88;;
17197;SDS011;8715;51.010;6.812;2023-05-07T09:17:35;1034.85;;;923.33;;
17197;SDS011;8715;51.010;6.812;2023-05-07T09:20:04;1037.32;;;924.60;;
17197;SDS011;8715;51.010;6.812;2023-05-07T09:22:32;1038.85;;;925.50;;
17197;SDS011;8715;51.010;6.812;2023-05-07T09:24:59;1039.43;;;926.20;;
17197;SDS011;8715;51.010;6.812;2023-05-07T09:27:25;1036.97;;;924.83;;
17197;SDS011;8715;51.010;6.812;2023-05-07T09:29:51;1034.65;;;923.10;;
17197;SDS011;8715;51.010;6.812;2023-05-07T09:32:18;1032.28;;;921.15;;
17197;SDS011;8715;51.010;6.812;2023-05-07T09:34:44;1027.43;;;915.38;;
17197;SDS011;8715;51.010;6.812;2023-05-07T09:37:12;1032.70;;;921.28;;
17197;SDS011;8715;51.010;6.812;2023-05-07T09:39:41;1040.25;;;926.67;;
17197;SDS011;8715;51.010;6.812;2023-05-07T09:42:07;1040.57;;;926.88;;
17197;SDS011;8715;51.010;6.812;2023-05-07T09:44:34;1036.30;;;923.58;;
17197;SDS011;8715;51.010;6.812;2023-05-07T09:47:00;1039.03;;;925.08;;
17197;SDS011;8715;51.010;6.812;2023-05-07T09:49:29;1038.55;;;925.17;;
17197;SDS011;8715;51.010;6.812;2023-05-07T09:51:56;1039.95;;;926.38;;
17197;SDS011;8715;51.010;6.812;2023-05-07T09:54:22;1035.68;;;922.70;;
17197;SDS011;8715;51.010;6.812;2023-05-07T09:56:50;1041.47;;;927.63;;
17197;SDS011;8715;51.010;6.812;2023-05-07T09:59:17;1042.05;;;927.78;;
17197;SDS011;8715;51.010;6.812;2023-05-07T10:01:44;1038.22;;;924.22;;
17197;SDS011;8715;51.010;6.812;2023-05-07T10:04:11;1037.63;;;924.65;;
17197;SDS011;8715;51.010;6.812;2023-05-07T10:06:37;1030.28;;;916.58;;
17197;SDS011;8715;51.010;6.812;2023-05-07T10:09:04;1034.18;;;922.33;;
17197;SDS011;8715;51.010;6.812;2023-05-07T10:11:31;1030.88;;;918.00;;
17197;SDS011;8715;51.010;6.812;2023-05-07T10:13:59;1035.50;;;923.55;;
17197;SDS011;8715;51.010;6.812;2023-05-07T10:18:53;1032.03;;;921.17;;
17197;SDS011;8715;51.010;6.812;2023-05-07T10:21:21;1025.07;;;913.45;;
17197;SDS011;8715;51.010;6.812;2023-05-07T10:23:49;1036.60;;;924.72;;
17197;SDS011;8715;51.010;6.812;2023-05-07T10:26:16;1037.72;;;925.05;;
17197;SDS011;8715;51.010;6.812;2023-05-07T10:28:44;1034.30;;;921.78;;
17197;SDS011;8715;51.010;6.812;2023-05-07T10:31:18;1038.82;;;925.38;;
17197;SDS011;8715;51.010;6.812;2023-05-07T10:33:50;1040.05;;;926.55;;
17197;SDS011;8715;51.010;6.812;2023-05-07T10:36:17;1040.75;;;925.85;;
17197;SDS011;8715;51.010;6.812;2023-05-07T10:38:44;1037.45;;;921.33;;
17197;SDS011;8715;51.010;6.812;2023-05-07T10:41:11;1045.13;;;927.72;;
17197;SDS011;8715;51.010;6.812;2023-05-07T10:43:41;1043.95;;;926.30;;
17197;SDS011;8715;51.010;6.812;2023-05-07T10:46:16;1058.00;;;929.72;;
17197;SDS011;8715;51.010;6.812;2023-05-07T10:51:28;1065.97;;;929.15;;
17197;SDS011;8715;51.010;6.812;2023-05-07T11:02:01;1063.03;;;931.00;;
17197;SDS011;8715;51.010;6.812;2023-05-07T11:04:29;1060.43;;;930.65;;
17197;SDS011;8715;51.010;6.812;2023-05-07T11:07:21;1057.90;;;929.45;;
17197;SDS011;8715;51.010;6.812;2023-05-07T11:09:56;1049.03;;;926.20;;
17197;SDS011;8715;51.010;6.812;2023-05-07T11:15:11;1046.13;;;927.53;;
17197;SDS011;8715;51.010;6.812;2023-05-07T11:17:53;1043.30;;;927.53;;
17197;SDS011;8715;51.010;6.812;2023-05-07T11:20:19;1041.53;;;926.42;;
17197;SDS011;8715;51.010;6.812;2023-05-07T11:22:46;1043.15;;;928.45;;
17197;SDS011;8715;51.010;6.812;2023-05-07T11:25:17;1035.28;;;921.75;;
17197;SDS011;8715;51.010;6.812;2023-05-07T11:27:43;1040.07;;;925.30;;
17197;SDS011;8715;51.010;6.812;2023-05-07T11:30:11;1042.57;;;927.25;;
17197;SDS011;8715;51.010;6.812;2023-05-07T11:32:42;1040.65;;;925.65;;
17197;SDS011;8715;51.010;6.812;2023-05-07T11:35:10;1046.72;;;927.95;;
17197;SDS011;8715;51.010;6.812;2023-05-07T11:37:37;1041.55;;;926.13;;
17197;SDS011;8715;51.010;6.812;2023-05-07T11:40:03;1040.00;;;924.75;;
17197;SDS011;8715;51.010;6.812;2023-05-07T11:42:31;1045.85;;;927.80;;
17197;SDS011;8715;51.010;6.812;2023-05-07T11:44:57;1051.40;;;927.67;;
17197;SDS011;8715;51.010;6.812;2023-05-07T11:47:24;1060.63;;;929.75;;
17197;SDS011;8715;51.010;6.812;2023-05-07T11:49:52;1060.97;;;930.38;;
17197;SDS011;8715;51.010;6.812;2023-05-07T11:52:20;1055.10;;;929.17;;
17197;SDS011;8715;51.010;6.812;2023-05-07T11:54:51;1067.93;;;930.00;;
17197;SDS011;8715;51.010;6.812;2023-05-07T11:57:17;1080.35;;;933.38;;
17197;SDS011;8715;51.010;6.812;2023-05-07T11:59:44;1081.80;;;932.72;;
17197;SDS011;8715;51.010;6.812;2023-05-07T12:02:13;1064.85;;;928.22;;
17197;SDS011;8715;51.010;6.812;2023-05-07T12:04:39;1064.85;;;930.75;;
17197;SDS011;8715;51.010;6.812;2023-05-07T12:07:05;1075.40;;;928.28;;
17197;SDS011;8715;51.010;6.812;2023-05-07T12:09:33;1060.68;;;930.33;;
17197;SDS011;8715;51.010;6.812;2023-05-07T12:12:03;1059.63;;;930.45;;
17197;SDS011;8715;51.010;6.812;2023-05-07T12:14:29;1059.18;;;930.55;;
17197;SDS011;8715;51.010;6.812;2023-05-07T12:16:56;1050.97;;;928.75;;
17197;SDS011;8715;51.010;6.812;2023-05-07T12:19:23;1055.45;;;929.00;;
17197;SDS011;8715;51.010;6.812;2023-05-07T12:21:50;1066.22;;;926.28;;
17197;SDS011;8715;51.010;6.812;2023-05-07T12:24:16;1058.80;;;927.67;;
17197;SDS011;8715;51.010;6.812;2023-05-07T12:26:44;1059.40;;;928.15;;
17197;SDS011;8715;51.010;6.812;2023-05-07T12:29:11;1052.63;;;928.00;;
17197;SDS011;8715;51.010;6.812;2023-05-07T12:31:40;1054.05;;;928.88;;
17197;SDS011;8715;51.010;6.812;2023-05-07T12:36:38;1052.43;;;929.45;;
17197;SDS011;8715;51.010;6.812;2023-05-07T12:39:06;1042.40;;;925.65;;
17197;SDS011;8715;51.010;6.812;2023-05-07T12:41:35;1043.70;;;925.88;;
17197;SDS011;8715;51.010;6.812;2023-05-07T12:44:05;1053.22;;;928.42;;
17197;SDS011;8715;51.010;6.812;2023-05-07T12:46:32;1056.15;;;932.13;;
17197;SDS011;8715;51.010;6.812;2023-05-07T12:48:58;1045.45;;;928.33;;
17197;SDS011;8715;51.010;6.812;2023-05-07T12:51:25;1048.78;;;927.28;;
17197;SDS011;8715;51.010;6.812;2023-05-07T12:53:51;1057.28;;;925.08;;
17197;SDS011;8715;51.010;6.812;2023-05-07T12:56:21;1053.18;;;927.63;;
17197;SDS011;8715;51.010;6.812;2023-05-07T12:58:48;1064.45;;;929.28;;
17197;SDS011;8715;51.010;6.812;2023-05-07T13:01:16;1065.13;;;931.75;;
17197;SDS011;8715;51.010;6.812;2023-05-07T13:03:47;1072.35;;;928.72;;
17197;SDS011;8715;51.010;6.812;2023-05-07T13:06:15;1070.57;;;931.70;;
17197;SDS011;8715;51.010;6.812;2023-05-07T13:08:41;1059.10;;;930.85;;
17197;SDS011;8715;51.010;6.812;2023-05-07T13:11:09;1070.88;;;931.15;;
17197;SDS011;8715;51.010;6.812;2023-05-07T13:13:36;1074.85;;;927.30;;
17197;SDS011;8715;51.010;6.812;2023-05-07T13:16:04;1071.47;;;931.38;;
17197;SDS011;8715;51.010;6.812;2023-05-07T13:18:33;1073.93;;;931.75;;
17197;SDS011;8715;51.010;6.812;2023-05-07T13:21:00;1070.22;;;930.83;;
17197;SDS011;8715;51.010;6.812;2023-05-07T13:23:26;1076.60;;;931.47;;
17197;SDS011;8715;51.010;6.812;2023-05-07T13:25:53;1068.90;;;929.67;;
17197;SDS011;8715;51.010;6.812;2023-05-07T13:28:20;1075.43;;;931.53;;
17197;SDS011;8715;51.010;6.812;2023-05-07T13:30:47;1076.72;;;931.10;;
17197;SDS011;8715;51.010;6.812;2023-05-07T13:33:13;1064.85;;;928.85;;
17197;SDS011;8715;51.010;6.812;2023-05-07T13:35:41;1069.40;;;931.67;;
17197;SDS011;8715;51.010;6.812;2023-05-07T13:38:08;1062.20;;;930.42;;
17197;SDS011;8715;51.010;6.812;2023-05-07T13:40:34;1061.47;;;929.67;;
17197;SDS011;8715;51.010;6.812;2023-05-07T13:43:01;1064.28;;;929.80;;
17197;SDS011;8715;51.010;6.812;2023-05-07T13:45:27;1048.15;;;927.67;;
17197;SDS011;8715;51.010;6.812;2023-05-07T13:47:54;1053.22;;;928.70;;
17197;SDS011;8715;51.010;6.812;2023-05-07T13:50:21;1050.07;;;929.83;;
17197;SDS011;8715;51.010;6.812;2023-05-07T13:52:49;1042.43;;;926.95;;
17197;SDS011;8715;51.010;6.812;2023-05-07T13:55:16;1043.47;;;927.97;;
17197;SDS011;8715;51.010;6.812;2023-05-07T13:57:43;1041.70;;;926.60;;
17197;SDS011;8715;51.010;6.812;2023-05-07T14:00:09;1040.63;;;926.35;;
17197;SDS011;8715;51.010;6.812;2023-05-07T14:02:36;1043.28;;;928.28;;
17197;SDS011;8715;51.010;6.812;2023-05-07T14:05:03;1041.15;;;927.05;;
17197;SDS011;8715;51.010;6.812;2023-05-07T14:07:29;1039.70;;;925.58;;
17197;SDS011;8715;51.010;6.812;2023-05-07T14:09:57;1037.40;;;923.67;;
17197;SDS011;8715;51.010;6.812;2023-05-07T14:12:24;1036.15;;;923.60;;
17197;SDS011;8715;51.010;6.812;2023-05-07T14:14:50;1037.72;;;924.38;;
17197;SDS011;8715;51.010;6.812;2023-05-07T14:17:16;1038.35;;;924.92;;
17197;SDS011;8715;51.010;6.812;2023-05-07T14:19:43;1037.47;;;924.95;;
17197;SDS011;8715;51.010;6.812;2023-05-07T14:22:09;1038.03;;;925.63;;